Airfield :
LOGIN :

Register | Disclaimer

   EN    FR    IT 

 










Legend :    VFR   Marginal VFR   IFR   Intensive IFR   Very Intensive IFR
Visi :
Ceiling :
>= 8 km
>= 3000ft
5 to 8 km
1000 to 3000 ft
1500m to 5 km
500 to 1000 ft
800 to 1500m
200 to 500 ft
< 800m
< 200 ft
Symbols :   Thunderstorms  Fog  Heavy snow  Heavy precipitations  Wind > 20 kt
SIGMETs :     Misc.  Thunderstorms  Icing  Turbulence  Mountain Waves  Volcanic Ashes







- Airport Elevation : 1947 ft
- IATA code : OBF


EDMO - Oberpfaffenhofen

CURRENT METAR :
  • 241520Z 06009KT 7000 BKN010 07/05 Q1025

EXPIRED METARs :
  • 241450Z 07008KT 6000 BKN009 07/05 Q1025
  • 241420Z 06010KT 6000 BKN008 07/05 Q1024
  • 241350Z 06010KT 6000 BKN008 07/05 Q1024
  • 241320Z 08008KT 4000 BR BKN009 07/05 Q1024
  • 241256Z 07008KT 3000 BR OVC006 06/05 Q1024 RMK ATIS V
  • 241250Z 07008KT 3000 BR OVC005 06/05 Q1024

TAF TAF EDMO
Valid from the 24 at 15:00 until the 25 at 00:00 UTC


241400Z 2415/2424 07008KT 4000 BR OVC009
BECMG 2415/2416 9999 BKN010
TEMPO 2416/2419 SCT012
No reported NOTAMs for that airfield.



MET'MAP, your aeronautical weather chart ! - Copyright ORBIFLY December 2007 - Disclaimer

ORBIFLY MET'MAP TEAM :

Programming & Development : Alexandra Zaïnal
Concept & Development : Baudouin d'Aumeries
Co-Development & Prog : Marc-Olivier Méhu
Technical & hardware support : Manuel Goepfert

Contact : metmap@orbifly.com




SOURCES & CREDITS :

   NOAA